Time;durP1;ratioP1;P1;durP2;ratioP2;P2;SDS_P1;SDS_P2;PMS_P1;PMS_P2;Temp;Humidity;BMP_temperature;BMP_pressure;BME280_temperature;BME280_humidity;BME280_pressure;Samples;Min_cycle;Max_cycle;Signal;HPM_P1;HPM_P2
2022/11/30 00:00:54;;;;;;;4.10;2.80;;;20.20;73.70;;;;;;4993946;28;20084;-72
2022/11/30 00:03:20;;;;;;;4.90;2.70;;;20.20;73.60;;;;;;4977635;28;20056;-72
2022/11/30 00:05:45;;;;;;;6.00;2.78;;;20.20;73.60;;;;;;4994857;28;20031;-72
2022/11/30 00:08:11;;;;;;;8.05;2.97;;;20.20;73.60;;;;;;4989999;28;20096;-72
2022/11/30 00:10:38;;;;;;;5.65;2.55;;;20.20;73.60;;;;;;4994987;28;20456;-72
2022/11/30 00:13:03;;;;;;;6.50;2.45;;;20.20;73.70;;;;;;4995172;28;20037;-72
2022/11/30 00:15:29;;;;;;;3.45;2.50;;;20.20;73.70;;;;;;4993747;28;20432;-72
2022/11/30 00:17:55;;;;;;;4.05;2.42;;;20.20;73.60;;;;;;4994270;28;20480;-72
2022/11/30 00:20:21;;;;;;;4.03;2.75;;;20.20;73.60;;;;;;4977041;28;20034;-72
2022/11/30 00:22:46;;;;;;;8.13;2.60;;;20.20;73.70;;;;;;4994401;28;20038;-72
2022/11/30 00:25:12;;;;;;;3.95;2.33;;;20.20;73.60;;;;;;4994351;28;20022;-72
2022/11/30 00:27:38;;;;;;;3.95;2.70;;;20.20;73.70;;;;;;4994167;28;20077;-72
2022/11/30 00:30:04;;;;;;;3.08;2.40;;;20.20;73.60;;;;;;4976881;28;20022;-72
2022/11/30 00:32:30;;;;;;;4.43;2.40;;;20.20;73.70;;;;;;4994394;28;20030;-72
2022/11/30 00:34:56;;;;;;;3.53;2.28;;;20.20;73.70;;;;;;4976669;28;20053;-72
2022/11/30 00:37:21;;;;;;;5.28;2.40;;;20.20;73.70;;;;;;4993539;28;20076;-72
2022/11/30 00:39:47;;;;;;;4.15;2.72;;;20.20;73.70;;;;;;4976903;28;20026;-72
2022/11/30 00:42:13;;;;;;;5.22;2.60;;;20.20;73.70;;;;;;4993888;28;20052;-72
2022/11/30 00:44:38;;;;;;;6.30;2.70;;;20.20;73.80;;;;;;4976850;28;20054;-72
2022/11/30 00:47:04;;;;;;;4.35;2.25;;;20.20;73.80;;;;;;4993952;28;20030;-72
2022/11/30 00:49:30;;;;;;;3.13;2.20;;;20.20;73.70;;;;;;4993625;28;20022;-72
2022/11/30 00:51:55;;;;;;;3.13;2.45;;;20.20;73.80;;;;;;4976553;28;20439;-72
2022/11/30 00:54:21;;;;;;;2.38;2.17;;;20.20;73.80;;;;;;4960395;28;20822;-72
2022/11/30 00:56:46;;;;;;;5.45;2.25;;;20.20;73.80;;;;;;4993856;28;20022;-72
2022/11/30 00:59:12;;;;;;;6.75;2.30;;;20.20;73.80;;;;;;4993761;28;20263;-72
2022/11/30 01:01:38;;;;;;;6.95;2.55;;;20.20;74.90;;;;;;4993758;28;20030;-72
2022/11/30 01:04:03;;;;;;;3.67;2.47;;;20.20;73.90;;;;;;4993402;28;20507;-72
2022/11/30 01:06:29;;;;;;;5.15;2.63;;;20.20;73.80;;;;;;4976177;28;20038;-72
2022/11/30 01:08:55;;;;;;;3.85;2.33;;;20.20;73.90;;;;;;4993442;28;20076;-72
2022/11/30 01:11:22;;;;;;;5.78;2.38;;;20.20;73.90;;;;;;4993456;28;20022;-72
2022/11/30 01:13:47;;;;;;;7.50;2.33;;;20.20;73.90;;;;;;4981684;28;20018;-72
2022/11/30 01:16:15;;;;;;;3.65;2.40;;;20.20;74.00;;;;;;4993932;28;20057;-72
2022/11/30 01:18:41;;;;;;;2.50;2.10;;;20.20;74.00;;;;;;4976541;28;20026;-72
2022/11/30 01:21:08;;;;;;;3.42;2.05;;;20.20;74.00;;;;;;4992759;28;20030;-72
2022/11/30 01:23:33;;;;;;;3.47;1.98;;;20.20;74.10;;;;;;4976247;28;20058;-72
2022/11/30 01:25:59;;;;;;;3.92;2.38;;;20.20;74.10;;;;;;4992787;28;20053;-72
2022/11/30 01:28:25;;;;;;;19.58;2.38;;;20.20;74.10;;;;;;4993971;28;20050;-72
2022/11/30 01:30:57;;;;;;;5.03;2.10;;;20.20;74.10;;;;;;4992046;28;20053;-72
2022/11/30 01:33:23;;;;;;;2.83;2.15;;;20.20;74.10;;;;;;4992979;28;20567;-72
2022/11/30 01:35:57;;;;;;;2.90;2.00;;;20.20;74.20;;;;;;4993353;28;20034;-72
2022/11/30 01:38:23;;;;;;;3.47;2.00;;;20.20;74.10;;;;;;4993198;28;20037;-72
2022/11/30 01:40:49;;;;;;;6.63;2.40;;;20.20;74.20;;;;;;4991780;28;20034;-72
2022/11/30 01:43:15;;;;;;;5.47;2.33;;;20.20;74.20;;;;;;4991799;28;20030;-72
2022/11/30 01:45:41;;;;;;;5.68;2.15;;;20.20;74.20;;;;;;4991892;28;20077;-72
2022/11/30 01:48:06;;;;;;;2.58;2.08;;;20.20;74.10;;;;;;4975484;28;20477;-72
2022/11/30 01:50:33;;;;;;;3.88;2.30;;;20.20;74.20;;;;;;4975915;28;20027;-72
2022/11/30 01:52:58;;;;;;;4.63;1.85;;;20.20;74.20;;;;;;4975645;28;20492;-72
2022/11/30 01:55:31;;;;;;;4.65;2.28;;;20.20;74.20;;;;;;4975601;28;20045;-72
2022/11/30 01:58:04;;;;;;;;;;;20.20;74.20;;;;;;4992234;28;20018;-72
2022/11/30 02:00:29;;;;;;;;;;;20.20;74.20;;;;;;4992156;28;19905;-72
2022/11/30 02:03:18;;;;;;;3.78;1.80;;;20.20;74.20;;;;;;4991444;28;19910;-72
2022/11/30 02:05:44;;;;;;;2.92;2.10;;;20.20;74.30;;;;;;4991769;28;20113;-72
2022/11/30 02:08:10;;;;;;;4.00;2.05;;;20.20;74.20;;;;;;4971954;28;20153;-72
2022/11/30 02:10:41;;;;;;;4.90;2.15;;;20.20;74.30;;;;;;4975752;28;20022;-72
2022/11/30 02:13:10;;;;;;;3.20;2.20;;;20.20;74.20;;;;;;4959329;28;20448;-72
2022/11/30 02:15:51;;;;;;;4.63;2.25;;;20.20;74.30;;;;;;4992491;28;20083;-72
2022/11/30 02:18:48;;;;;;;6.32;2.08;;;20.20;74.20;;;;;;4976586;28;20085;-72
2022/11/30 02:21:33;;;;;;;2.63;1.90;;;20.20;74.20;;;;;;4913716;29;20176;-72
2022/11/30 02:24:26;;;;;;;2.97;1.92;;;20.20;74.30;;;;;;4913869;29;20040;-72
2022/11/30 02:27:12;;;;;;;4.78;1.70;;;20.20;74.30;;;;;;4908257;29;20044;-72
2022/11/30 02:30:00;;;;;;;3.85;1.95;;;20.20;74.30;;;;;;4895009;29;20054;-72
2022/11/30 02:32:39;;;;;;;2.92;1.77;;;20.20;74.20;;;;;;4894646;29;20069;-72
2022/11/30 02:35:05;;;;;;;5.55;2.22;;;20.20;74.30;;;;;;4894958;29;20033;-72
2022/11/30 02:37:30;;;;;;;3.35;1.83;;;20.20;74.30;;;;;;4894761;29;20029;-72
2022/11/30 02:39:57;;;;;;;5.57;1.80;;;20.20;74.30;;;;;;4894934;29;20043;-72
2022/11/30 02:42:22;;;;;;;3.92;1.75;;;20.20;74.30;;;;;;4894722;29;20487;-72
2022/11/30 02:44:49;;;;;;;1.90;1.42;;;20.20;74.30;;;;;;4894735;29;20072;-72
2022/11/30 02:47:40;;;;;;;4.75;1.85;;;20.20;74.40;;;;;;4894629;29;20511;-72
2022/11/30 02:50:14;;;;;;;5.82;1.67;;;20.20;74.40;;;;;;4894909;29;20043;-72
2022/11/30 02:52:40;;;;;;;2.40;1.50;;;20.20;74.40;;;;;;4894774;29;20509;-72
2022/11/30 02:55:10;;;;;;;1.98;1.52;;;20.20;74.40;;;;;;4894919;29;20036;-72
2022/11/30 02:57:35;;;;;;;4.45;1.70;;;20.20;74.50;;;;;;4922746;28;20104;-72
2022/11/30 03:00:03;;;;;;;2.63;1.90;;;20.20;74.40;;;;;;4975862;28;20492;-72
2022/11/30 03:02:29;;;;;;;4.82;1.92;;;20.20;74.50;;;;;;4978878;28;20506;-72
2022/11/30 03:04:54;;;;;;;2.92;1.70;;;20.20;74.50;;;;;;4996021;28;20185;-72
2022/11/30 03:07:20;;;;;;;2.65;1.60;;;20.10;74.40;;;;;;4995369;28;20039;-72
2022/11/30 03:09:46;;;;;;;3.50;1.75;;;20.20;74.50;;;;;;4996262;28;20092;-72
2022/11/30 03:12:11;;;;;;;5.18;1.70;;;20.20;74.50;;;;;;4978533;28;20411;-72
2022/11/30 03:14:37;;;;;;;3.92;1.75;;;20.20;74.50;;;;;;4995627;28;20058;-72
2022/11/30 03:17:03;;;;;;;3.97;1.83;;;20.20;74.50;;;;;;4995902;28;20447;-72
2022/11/30 03:19:28;;;;;;;3.13;1.90;;;20.20;74.50;;;;;;4978331;28;20026;-72
2022/11/30 03:21:54;;;;;;;2.65;1.80;;;20.20;74.50;;;;;;4995657;28;20038;-72
2022/11/30 03:24:19;;;;;;;2.17;1.60;;;20.20;74.60;;;;;;4995595;28;20392;-72
2022/11/30 03:26:45;;;;;;;1.90;1.30;;;20.10;74.50;;;;;;4995669;28;20465;-72
2022/11/30 03:29:11;;;;;;;4.55;1.77;;;20.20;74.50;;;;;;4995588;28;20026;-72
2022/11/30 03:31:36;;;;;;;3.33;1.45;;;20.20;74.50;;;;;;4995521;28;20113;-72
2022/11/30 03:34:02;;;;;;;1.80;1.55;;;20.20;74.60;;;;;;4977928;28;20101;-72
2022/11/30 03:36:27;;;;;;;1.65;1.45;;;20.20;74.60;;;;;;4977992;28;20026;-72
2022/11/30 03:38:53;;;;;;;2.45;1.38;;;20.20;74.50;;;;;;4995435;28;20033;-72
2022/11/30 03:41:19;;;;;;;1.98;1.63;;;20.20;74.60;;;;;;4995280;28;20026;-72
2022/11/30 03:43:45;;;;;;;2.45;1.42;;;20.20;74.60;;;;;;4994980;28;20026;-72
2022/11/30 03:46:11;;;;;;;3.13;1.60;;;20.10;74.60;;;;;;4977976;28;20022;-72
2022/11/30 03:48:37;;;;;;;4.00;1.60;;;20.10;74.60;;;;;;4977949;28;20023;-72
2022/11/30 03:51:03;;;;;;;3.88;1.55;;;20.20;74.70;;;;;;4995195;28;20400;-72
2022/11/30 03:53:29;;;;;;;1.90;1.40;;;20.20;74.60;;;;;;4977565;28;20076;-72
2022/11/30 03:55:55;;;;;;;3.20;1.58;;;20.20;74.70;;;;;;4977921;28;20440;-72
2022/11/30 03:58:22;;;;;;;1.38;1.17;;;20.20;74.70;;;;;;4995035;28;20022;-72
2022/11/30 04:00:47;;;;;;;2.13;1.60;;;20.10;74.60;;;;;;4977651;28;20066;-72
2022/11/30 04:03:13;;;;;;;2.40;1.45;;;20.20;74.70;;;;;;4977652;28;20030;-72
2022/11/30 04:05:39;;;;;;;2.30;1.40;;;20.10;74.70;;;;;;4977178;28;20101;-72
2022/11/30 04:08:04;;;;;;;11.88;1.50;;;20.10;74.70;;;;;;4988642;28;20110;-72
2022/11/30 04:10:30;;;;;;;1.60;1.50;;;20.20;74.80;;;;;;4958058;28;20474;-72
2022/11/30 04:12:56;;;;;;;3.92;1.50;;;20.10;74.70;;;;;;4957256;28;20022;-72
2022/11/30 04:15:21;;;;;;;2.30;1.40;;;20.10;74.70;;;;;;4975111;28;20060;-72
2022/11/30 04:17:47;;;;;;;2.97;1.40;;;20.10;74.70;;;;;;4958334;28;20533;-72
2022/11/30 04:20:13;;;;;;;2.03;1.50;;;20.10;74.70;;;;;;4975026;28;20118;-72
2022/11/30 04:22:38;;;;;;;2.65;1.42;;;20.10;74.70;;;;;;4957809;28;20098;-72
2022/11/30 04:25:04;;;;;;;1.30;1.20;;;20.10;74.70;;;;;;4957982;28;20027;-72
2022/11/30 04:27:30;;;;;;;3.20;1.25;;;20.10;74.80;;;;;;4989570;28;20058;-72
2022/11/30 04:29:55;;;;;;;1.75;1.20;;;20.10;74.70;;;;;;4994293;28;20050;-72
2022/11/30 04:32:21;;;;;;;1.58;1.20;;;20.10;74.80;;;;;;4977304;28;20026;-72
2022/11/30 04:34:47;;;;;;;1.42;1.30;;;20.10;74.70;;;;;;4976939;28;20030;-72
2022/11/30 04:37:12;;;;;;;1.88;1.30;;;20.20;74.70;;;;;;4994387;28;20026;-72
2022/11/30 04:39:38;;;;;;;1.50;1.13;;;20.10;74.70;;;;;;4994081;28;20037;-72
2022/11/30 04:42:04;;;;;;;2.67;1.33;;;20.10;74.80;;;;;;4994013;28;20069;-72
2022/11/30 04:44:29;;;;;;;1.88;1.33;;;20.10;74.70;;;;;;4976861;28;20408;-72
2022/11/30 04:46:55;;;;;;;1.95;1.42;;;20.10;74.70;;;;;;4994017;28;20054;-72
2022/11/30 04:49:20;;;;;;;2.55;1.17;;;20.10;74.70;;;;;;4976582;28;20030;-72
2022/11/30 04:51:46;;;;;;;3.38;1.30;;;20.10;74.70;;;;;;4994038;28;20023;-72
2022/11/30 04:54:12;;;;;;;1.73;1.38;;;20.10;74.70;;;;;;4994064;28;20084;-72
2022/11/30 04:56:37;;;;;;;3.03;1.42;;;20.10;74.80;;;;;;4993626;28;20022;-73
2022/11/30 04:59:03;;;;;;;1.85;1.48;;;20.10;74.80;;;;;;4993788;28;20392;-72
2022/11/30 05:01:28;;;;;;;2.80;1.20;;;20.10;74.70;;;;;;4993674;28;20022;-72
2022/11/30 05:03:55;;;;;;;1.55;1.10;;;20.20;74.80;;;;;;4993782;28;20031;-72
2022/11/30 05:06:21;;;;;;;3.25;1.20;;;20.10;74.70;;;;;;4976430;28;20042;-72
2022/11/30 05:08:47;;;;;;;3.08;1.30;;;20.10;74.80;;;;;;5005436;28;20034;-72
2022/11/30 05:11:12;;;;;;;1.67;1.13;;;20.10;74.80;;;;;;4995665;28;20526;-72
2022/11/30 05:13:38;;;;;;;1.13;0.88;;;20.10;74.70;;;;;;5013245;28;20068;-72
2022/11/30 05:16:04;;;;;;;1.83;1.23;;;20.10;74.80;;;;;;5013182;28;20396;-72
2022/11/30 05:18:30;;;;;;;1.77;1.27;;;20.10;74.70;;;;;;5013307;28;20100;-72
2022/11/30 05:20:56;;;;;;;3.25;1.40;;;20.10;74.70;;;;;;5013087;28;20503;-72
2022/11/30 05:23:21;;;;;;;2.78;1.17;;;20.10;74.80;;;;;;4978993;28;20117;-72
2022/11/30 05:25:47;;;;;;;1.60;1.13;;;20.10;74.70;;;;;;4995396;28;20018;-72
2022/11/30 05:28:13;;;;;;;3.08;1.33;;;20.10;74.70;;;;;;4995498;28;20022;-72
2022/11/30 05:30:39;;;;;;;1.95;1.33;;;20.10;74.70;;;;;;4995202;28;20408;-72
2022/11/30 05:33:05;;;;;;;1.83;1.23;;;20.10;74.70;;;;;;4995601;28;20598;-72
2022/11/30 05:35:30;;;;;;;1.75;1.30;;;20.10;74.80;;;;;;4995303;28;20030;-72
2022/11/30 05:37:56;;;;;;;1.48;1.08;;;20.10;74.80;;;;;;4995386;28;20554;-72
2022/11/30 05:40:22;;;;;;;2.30;1.33;;;20.10;74.70;;;;;;5012759;28;20030;-72
2022/11/30 05:42:53;;;;;;;1.88;1.10;;;20.10;74.70;;;;;;5012515;28;20458;-72
2022/11/30 05:45:18;;;;;;;5.80;1.33;;;20.10;74.70;;;;;;5012702;28;20026;-72
2022/11/30 05:47:44;;;;;;;1.70;1.20;;;20.10;74.70;;;;;;5012652;28;20022;-72
2022/11/30 05:50:10;;;;;;;2.35;1.00;;;20.10;74.70;;;;;;4995290;28;20072;-72
2022/11/30 05:52:36;;;;;;;1.67;1.10;;;20.10;74.70;;;;;;4995285;28;20096;-72
2022/11/30 05:55:01;;;;;;;2.88;1.23;;;20.10;74.80;;;;;;4978928;28;20096;-72
2022/11/30 05:57:27;;;;;;;3.42;1.05;;;20.10;74.70;;;;;;5012635;28;20026;-72
2022/11/30 05:59:52;;;;;;;2.10;1.13;;;20.10;74.70;;;;;;5012442;28;20468;-72
2022/11/30 06:02:18;;;;;;;1.08;0.88;;;20.10;74.70;;;;;;4995008;28;20061;-72
2022/11/30 06:04:44;;;;;;;0.82;0.82;;;20.10;74.90;;;;;;4994981;28;20587;-72
2022/11/30 06:07:10;;;;;;;0.82;0.70;;;20.10;74.90;;;;;;4994910;28;20404;-72
2022/11/30 06:09:37;;;;;;;1.58;0.98;;;20.10;74.80;;;;;;4993609;28;20109;-72
2022/11/30 06:12:03;;;;;;;2.25;1.17;;;20.10;74.80;;;;;;4992918;28;20057;-72
2022/11/30 06:14:29;;;;;;;1.45;1.00;;;20.10;74.90;;;;;;4993087;28;20022;-72
2022/11/30 06:16:54;;;;;;;2.97;0.95;;;20.10;74.90;;;;;;4992698;28;20480;-72
2022/11/30 06:19:20;;;;;;;2.90;1.10;;;20.10;74.90;;;;;;4975386;28;20081;-72
2022/11/30 06:21:45;;;;;;;1.90;0.82;;;20.10;74.90;;;;;;4992610;28;20058;-72
2022/11/30 06:24:11;;;;;;;3.22;1.10;;;20.10;75.00;;;;;;4992760;28;20101;-72
2022/11/30 06:26:37;;;;;;;1.58;1.00;;;20.10;75.00;;;;;;4967625;28;20459;-72
2022/11/30 06:29:02;;;;;;;3.53;1.10;;;20.10;75.00;;;;;;4973452;28;20031;-72
2022/11/30 06:31:29;;;;;;;2.33;0.98;;;20.10;75.00;;;;;;4956073;28;20029;-72
2022/11/30 06:33:56;;;;;;;2.58;1.08;;;20.10;75.00;;;;;;4956184;28;20057;-72
2022/11/30 06:36:22;;;;;;;2.53;1.00;;;20.10;75.00;;;;;;4959230;28;20488;-72
2022/11/30 06:38:47;;;;;;;2.88;1.35;;;20.10;75.00;;;;;;4959580;28;20093;-72
2022/11/30 06:41:13;;;;;;;3.30;0.93;;;20.10;75.10;;;;;;4959962;28;20041;-72
2022/11/30 06:43:39;;;;;;;0.85;0.85;;;20.10;75.00;;;;;;4976891;28;20030;-72
2022/11/30 06:46:05;;;;;;;2.53;1.02;;;20.10;75.00;;;;;;4976736;28;20485;-72
2022/11/30 06:48:31;;;;;;;3.15;0.85;;;20.10;75.00;;;;;;4943743;28;20472;-72
2022/11/30 06:50:57;;;;;;;2.33;0.95;;;20.10;75.00;;;;;;4943464;28;20062;-72
2022/11/30 06:53:23;;;;;;;2.20;1.13;;;20.10;75.00;;;;;;4976672;28;20405;-72
2022/11/30 06:55:49;;;;;;;1.27;1.05;;;20.00;75.00;;;;;;4959154;28;20031;-72
2022/11/30 06:58:14;;;;;;;3.17;1.00;;;20.10;75.00;;;;;;4959546;28;20027;-72
2022/11/30 07:00:41;;;;;;;2.53;0.82;;;20.10;75.00;;;;;;4976575;28;20038;-72
2022/11/30 07:03:07;;;;;;;2.17;1.00;;;20.00;75.00;;;;;;4943472;28;20034;-72
2022/11/30 07:05:34;;;;;;;3.53;1.00;;;20.10;75.00;;;;;;4959087;28;20023;-72
2022/11/30 07:07:59;;;;;;;1.42;1.00;;;20.10;75.00;;;;;;4953786;28;20022;-72
2022/11/30 07:10:25;;;;;;;1.27;1.00;;;20.10;75.00;;;;;;5015600;28;20029;-72
2022/11/30 07:12:50;;;;;;;1.52;0.77;;;20.10;75.00;;;;;;5015235;28;20041;-72
2022/11/30 07:15:16;;;;;;;0.90;0.80;;;20.00;74.90;;;;;;5015248;28;20034;-72
2022/11/30 07:17:42;;;;;;;1.63;0.93;;;20.10;74.90;;;;;;4997917;28;20041;-73
2022/11/30 07:20:08;;;;;;;2.90;1.13;;;20.00;74.30;;;;;;5015146;28;20029;-73
2022/11/30 07:22:33;;;;;;;1.30;1.20;;;20.00;72.30;;;;;;4997545;28;20034;-73
2022/11/30 07:27:43;;;;;;;1.92;1.35;;;19.80;72.20;;;;;;4998068;28;20045;-73
2022/11/30 07:30:09;;;;;;;2.45;1.20;;;19.80;72.30;;;;;;4995891;28;20027;-73
2022/11/30 07:32:35;;;;;;;1.70;1.30;;;19.70;72.20;;;;;;4994501;28;20068;-73
2022/11/30 07:35:00;;;;;;;2.20;1.48;;;19.70;72.30;;;;;;4995961;28;20054;-73
2022/11/30 07:37:26;;;;;;;3.58;1.35;;;19.60;72.20;;;;;;4995421;28;20106;-73
2022/11/30 07:39:52;;;;;;;2.75;1.55;;;19.60;72.30;;;;;;4994640;28;20065;-73
2022/11/30 07:42:17;;;;;;;1.67;1.58;;;19.60;72.40;;;;;;4995566;28;20133;-73
2022/11/30 07:44:43;;;;;;;2.72;1.58;;;19.50;72.40;;;;;;4995684;28;20503;-75
2022/11/30 07:47:09;;;;;;;71.35;10.98;;;19.50;72.40;;;;;;4994176;28;20109;-74
2022/11/30 07:49:34;;;;;;;48.45;6.90;;;19.40;72.90;;;;;;4992523;28;20026;-75
2022/11/30 07:52:03;;;;;;;23.67;5.45;;;19.40;73.60;;;;;;4993972;28;20102;-74
2022/11/30 07:54:28;;;;;;;19.90;3.92;;;19.40;73.90;;;;;;4993546;28;20022;-74
2022/11/30 07:56:54;;;;;;;16.88;4.45;;;19.30;73.80;;;;;;4992993;28;20492;-75
2022/11/30 07:59:20;;;;;;;17.98;4.95;;;19.30;73.80;;;;;;4991851;28;20030;-74
2022/11/30 08:01:45;;;;;;;24.30;5.30;;;19.30;73.80;;;;;;4992838;28;20026;-75
2022/11/30 08:04:12;;;;;;;25.77;4.70;;;19.30;73.90;;;;;;4991379;28;20037;-75
2022/11/30 08:06:38;;;;;;;25.33;4.93;;;19.20;73.70;;;;;;4992573;28;20592;-74
2022/11/30 08:09:04;;;;;;;18.13;4.63;;;19.20;73.70;;;;;;4970907;28;20110;-75
2022/11/30 08:11:32;;;;;;;19.15;5.00;;;19.20;73.70;;;;;;4991096;28;20492;-75
2022/11/30 08:13:57;;;;;;;23.17;5.90;;;19.10;73.60;;;;;;4958167;28;20042;-74
2022/11/30 08:16:24;;;;;;;24.65;4.90;;;19.10;73.70;;;;;;4962021;28;20393;-74
2022/11/30 08:18:50;;;;;;;22.80;5.50;;;19.10;73.80;;;;;;4976917;28;20049;-75
2022/11/30 08:21:17;;;;;;;15.98;4.90;;;19.00;73.80;;;;;;4977192;28;20397;-75
2022/11/30 08:23:45;;;;;;;17.73;4.68;;;19.00;73.80;;;;;;4977113;28;20497;-75
2022/11/30 08:26:13;;;;;;;16.85;4.82;;;19.00;73.90;;;;;;4962518;28;20077;-75
2022/11/30 08:28:39;;;;;;;13.20;4.82;;;19.00;73.90;;;;;;4941748;28;20023;-75
2022/11/30 08:31:09;;;;;;;14.63;4.20;;;19.00;74.00;;;;;;4941816;28;20023;-75
2022/11/30 08:33:35;;;;;;;16.30;4.63;;;18.90;74.00;;;;;;4941528;28;20035;-75
2022/11/30 08:36:28;;;;;;;19.33;5.30;;;18.90;74.00;;;;;;4957405;28;20465;-74
2022/11/30 08:38:54;;;;;;;10.68;4.45;;;18.90;74.00;;;;;;4971129;28;20062;-75
2022/11/30 08:41:20;;;;;;;17.02;4.50;;;18.90;74.10;;;;;;4925731;28;20027;-74
2022/11/30 08:43:46;;;;;;;18.08;5.50;;;18.80;74.10;;;;;;4993172;28;20034;-74
2022/11/30 08:46:13;;;;;;;10.98;4.13;;;18.80;74.20;;;;;;4976492;28;20018;-74
2022/11/30 08:48:39;;;;;;;16.10;4.00;;;18.80;74.30;;;;;;4976535;28;20041;-75
2022/11/30 08:51:06;;;;;;;16.02;4.22;;;18.80;74.30;;;;;;4993854;28;20026;-74
2022/11/30 08:53:32;;;;;;;14.10;4.57;;;18.80;74.30;;;;;;4976509;28;20038;-74
2022/11/30 08:55:59;;;;;;;12.45;4.07;;;18.70;74.40;;;;;;4976513;28;20484;-75
2022/11/30 08:58:26;;;;;;;14.00;4.60;;;18.70;74.40;;;;;;4976020;28;20026;-75
2022/11/30 09:00:52;;;;;;;9.85;3.53;;;18.70;74.40;;;;;;4976397;28;20030;-74
2022/11/30 09:03:18;;;;;;;14.07;4.07;;;18.70;74.70;;;;;;4975961;28;20026;-75
2022/11/30 09:05:43;;;;;;;15.52;4.75;;;18.70;74.50;;;;;;4976079;28;20461;-74
2022/11/30 09:08:09;;;;;;;10.02;3.80;;;18.70;74.60;;;;;;4993337;28;20053;-74
2022/11/30 09:10:35;;;;;;;14.10;3.95;;;18.60;74.50;;;;;;4993626;28;20600;-74
2022/11/30 09:13:01;;;;;;;10.43;4.00;;;18.70;74.60;;;;;;4993410;28;20034;-74
2022/11/30 09:15:26;;;;;;;11.20;4.40;;;18.60;74.50;;;;;;4993334;28;20436;-74
2022/11/30 09:17:52;;;;;;;13.82;4.43;;;18.60;74.60;;;;;;4975615;28;20037;-75
2022/11/30 09:20:18;;;;;;;13.75;4.22;;;18.60;74.60;;;;;;4976084;28;20026;-75
2022/11/30 09:22:44;;;;;;;12.57;4.00;;;18.60;74.60;;;;;;4993419;28;20048;-74
2022/11/30 09:25:09;;;;;;;11.32;4.15;;;18.60;74.60;;;;;;4993206;28;20100;-74
2022/11/30 09:27:35;;;;;;;10.38;3.92;;;18.50;74.60;;;;;;4993243;28;20030;-74
2022/11/30 09:30:01;;;;;;;10.48;4.32;;;18.50;74.60;;;;;;4976007;28;20106;-74
2022/11/30 09:32:27;;;;;;;6.95;3.33;;;18.50;74.60;;;;;;4975867;28;20027;-75
2022/11/30 09:34:53;;;;;;;8.88;4.13;;;18.50;74.70;;;;;;4975867;28;20022;-75
2022/11/30 09:37:19;;;;;;;10.23;4.22;;;18.50;74.80;;;;;;4993092;28;20036;-74
2022/11/30 09:39:44;;;;;;;6.75;3.22;;;18.40;74.70;;;;;;4975958;28;20040;-75
2022/11/30 09:42:27;;;;;;;10.85;3.90;;;18.50;74.70;;;;;;4975592;28;20049;-74
2022/11/30 09:45:13;;;;;;;5.82;3.50;;;18.40;74.70;;;;;;4993009;28;20046;-75
2022/11/30 09:47:57;;;;;;;8.52;3.28;;;18.40;74.70;;;;;;4992853;28;20034;-75
2022/11/30 09:50:25;;;;;;;7.95;3.15;;;18.40;74.70;;;;;;4975949;28;20097;-75
2022/11/30 09:52:55;;;;;;;7.65;3.25;;;18.40;74.80;;;;;;4975893;28;20033;-74
2022/11/30 09:55:40;;;;;;;8.13;3.60;;;18.40;74.70;;;;;;4975683;28;20018;-75
2022/11/30 09:58:06;;;;;;;8.48;3.40;;;18.40;74.70;;;;;;4959311;28;20034;-75
2022/11/30 10:00:32;;;;;;;6.75;2.80;;;18.40;74.70;;;;;;4975410;28;20440;-74
2022/11/30 10:03:00;;;;;;;6.63;3.38;;;18.40;74.80;;;;;;4975317;28;20031;-75
2022/11/30 10:05:32;;;;;;;5.13;3.00;;;18.30;74.70;;;;;;4975633;28;20061;-74
2022/11/30 10:08:25;;;;;;;6.10;2.70;;;18.30;74.70;;;;;;4975361;28;20031;-74
2022/11/30 10:10:54;;;;;;;;;;;18.30;74.70;;;;;;4979019;28;20027;-74
2022/11/30 10:13:51;;;;;;;5.68;3.05;;;18.30;74.70;;;;;;4979718;28;19906;-75
2022/11/30 10:16:29;;;;;;;8.70;2.80;;;18.30;74.80;;;;;;4996445;28;20037;-75
2022/11/30 10:19:43;;;;;;;8.70;2.95;;;18.30;74.70;;;;;;4979561;28;20037;-74
2022/11/30 10:22:21;;;;;;;;;;;18.30;74.80;;;;;;4936873;29;20039;-75
2022/11/30 10:25:00;;;;;;;7.20;3.10;;;18.30;74.70;;;;;;4936641;29;19930;-74
2022/11/30 10:27:44;;;;;;;5.28;2.65;;;18.30;74.70;;;;;;4936506;29;20414;-75
2022/11/30 10:30:36;;;;;;;3.88;2.53;;;18.20;74.60;;;;;;4936109;29;20028;-75
2022/11/30 10:33:18;;;;;;;3.15;2.20;;;18.20;74.70;;;;;;4934544;29;20383;-74
2022/11/30 10:35:54;;;;;;;3.05;2.28;;;18.20;74.60;;;;;;4920945;29;20055;-75
2022/11/30 10:38:59;;;;;;;5.18;2.60;;;18.20;74.60;;;;;;4921488;29;20042;-75
2022/11/30 10:41:42;;;;;;;5.32;2.58;;;18.20;74.70;;;;;;4898365;29;20028;-74
2022/11/30 10:44:15;;;;;;;6.22;2.25;;;18.20;74.70;;;;;;4897868;29;20036;-75
2022/11/30 10:46:51;;;;;;;5.78;2.55;;;18.20;74.70;;;;;;4897757;29;20053;-74
2022/11/30 10:49:17;;;;;;;2.95;2.35;;;18.20;74.70;;;;;;4897791;29;20080;-75
2022/11/30 10:51:45;;;;;;;4.80;2.60;;;18.20;74.70;;;;;;4902665;29;20542;-74
2022/11/30 10:54:15;;;;;;;2.80;2.20;;;18.20;74.70;;;;;;4923500;29;20027;-74
2022/11/30 10:56:41;;;;;;;5.30;2.90;;;18.20;74.70;;;;;;4955249;29;20027;-75
2022/11/30 10:59:39;;;;;;;5.68;2.45;;;18.20;74.70;;;;;;4939064;29;20106;-75
2022/11/30 11:02:32;;;;;;;4.55;2.30;;;18.10;74.70;;;;;;4926101;29;20038;-74
2022/11/30 11:05:21;;;;;;;5.35;2.33;;;18.20;74.70;;;;;;4955051;29;20031;-75
2022/11/30 11:08:00;;;;;;;3.20;2.08;;;18.10;74.70;;;;;;4938947;29;20043;-75
2022/11/30 11:10:36;;;;;;;2.22;2.00;;;18.10;74.70;;;;;;4923581;29;20639;-74
2022/11/30 11:13:01;;;;;;;2.47;2.00;;;18.10;74.70;;;;;;4989700;28;20554;-75
2022/11/30 11:15:28;;;;;;;3.20;2.10;;;18.10;74.80;;;;;;4995632;28;20022;-75
2022/11/30 11:18:11;;;;;;;4.50;2.50;;;18.10;74.80;;;;;;4959873;28;20489;-74
2022/11/30 11:20:42;;;;;;;2.10;1.90;;;18.10;74.80;;;;;;4960873;28;20077;-75
2022/11/30 11:23:27;;;;;;;3.28;2.30;;;18.10;74.80;;;;;;4944246;28;20057;-74
2022/11/30 11:25:53;;;;;;;3.75;2.00;;;18.10;74.70;;;;;;4975703;28;20035;-75
2022/11/30 11:28:21;;;;;;;5.72;2.30;;;18.00;74.70;;;;;;4958526;28;20029;-75
2022/11/30 11:30:47;;;;;;;2.42;1.90;;;18.00;74.60;;;;;;4976107;28;20022;-74
2022/11/30 11:33:13;;;;;;;2.28;1.83;;;18.10;74.70;;;;;;4958790;28;20109;-74
2022/11/30 11:35:46;;;;;;;4.00;2.33;;;18.00;74.70;;;;;;4976292;28;20054;-74
2022/11/30 11:38:40;;;;;;;4.40;2.10;;;18.00;74.70;;;;;;4943516;28;20029;-75
2022/11/30 11:41:36;;;;;;;2.10;1.90;;;18.00;74.70;;;;;;4959088;28;20053;-74
2022/11/30 11:44:20;;;;;;;3.15;1.90;;;18.00;74.70;;;;;;4975797;28;20023;-74
2022/11/30 11:46:57;;;;;;;2.60;1.88;;;18.00;74.80;;;;;;4958915;28;20493;-75
2022/11/30 11:49:25;;;;;;;3.92;2.65;;;18.00;74.70;;;;;;4943004;28;20050;-75
2022/11/30 11:52:04;;;;;;;2.60;2.28;;;18.00;74.80;;;;;;4975478;28;20026;-74
2022/11/30 11:54:52;;;;;;;2.08;1.70;;;18.00;74.70;;;;;;4958404;28;20478;-75
2022/11/30 11:57:20;;;;;;;2.67;1.88;;;18.00;74.80;;;;;;4943963;28;20027;-75
2022/11/30 11:59:56;;;;;;;3.10;1.73;;;17.90;74.70;;;;;;4942665;28;20033;-74
2022/11/30 12:02:38;;;;;;;2.35;1.98;;;17.90;74.70;;;;;;4942885;28;20081;-74
2022/11/30 12:05:25;;;;;;;2.23;1.83;;;17.90;74.80;;;;;;4926605;28;20461;-74
2022/11/30 12:07:57;;;;;;;2.60;1.83;;;17.90;74.70;;;;;;4962416;28;20349;-74
2022/11/30 12:10:35;;;;;;;2.83;1.83;;;17.90;74.80;;;;;;4994625;28;20030;-75
2022/11/30 12:13:00;;;;;;;3.00;2.20;;;17.90;74.80;;;;;;4977646;28;20110;-74
2022/11/30 12:15:37;;;;;;;2.30;1.92;;;17.90;74.80;;;;;;4994463;28;20105;-75
2022/11/30 12:18:15;;;;;;;2.60;2.10;;;17.90;74.80;;;;;;4957966;28;20026;-74
2022/11/30 12:20:50;;;;;;;2.63;2.00;;;17.90;74.80;;;;;;4957851;28;20073;-74
2022/11/30 12:23:30;;;;;;;2.10;1.85;;;17.90;74.80;;;;;;4974887;28;20105;-74
2022/11/30 12:26:05;;;;;;;3.35;2.00;;;17.90;74.80;;;;;;4957465;28;20030;-75
2022/11/30 12:28:58;;;;;;;1.92;1.73;;;17.90;74.80;;;;;;4974895;28;20055;-74
2022/11/30 12:31:25;;;;;;;3.00;2.10;;;17.90;74.80;;;;;;4957534;28;20035;-74
2022/11/30 12:34:03;;;;;;;2.15;1.98;;;17.90;74.80;;;;;;4956882;28;20102;-75
2022/11/30 12:36:41;;;;;;;2.13;1.80;;;17.90;74.80;;;;;;4957974;28;20054;-75
2022/11/30 12:39:39;;;;;;;1.83;1.73;;;17.90;74.80;;;;;;4974752;28;20022;-75
2022/11/30 12:42:40;;;;;;;3.05;1.80;;;17.90;74.80;;;;;;4957348;28;20432;-74
2022/11/30 12:45:25;;;;;;;4.00;2.47;;;17.90;74.80;;;;;;4953675;28;20038;-75
2022/11/30 12:48:34;;;;;;;2.55;1.90;;;17.80;74.80;;;;;;4974399;28;20031;-75
2022/11/30 12:51:06;;;;;;;1.80;1.70;;;17.80;74.80;;;;;;4918346;29;20024;-75
2022/11/30 12:53:50;;;;;;;1.92;1.73;;;17.80;74.90;;;;;;4933799;29;20047;-75
2022/11/30 12:56:38;;;;;;;2.63;2.20;;;17.80;74.80;;;;;;4933689;29;20038;-75
2022/11/30 12:59:29;;;;;;;2.60;2.10;;;17.80;74.90;;;;;;4933792;29;20047;-74
2022/11/30 13:02:13;;;;;;;3.47;2.10;;;17.80;74.90;;;;;;4920689;29;20039;-74